createdAt,value
2018-11-21T00:00:31.219Z,-8.09
2018-11-21T00:02:58.500Z,-8.14
2018-11-21T00:05:25.693Z,-8.15
2018-11-21T00:07:52.905Z,-8.14
2018-11-21T00:10:20.092Z,-8.14
2018-11-21T00:12:49.737Z,-8.19
2018-11-21T00:15:16.919Z,-8.23
2018-11-21T00:17:44.137Z,-8.27
2018-11-21T00:20:11.310Z,-8.28
2018-11-21T00:22:38.605Z,-8.29
2018-11-21T00:25:05.809Z,-8.32
2018-11-21T00:27:33.034Z,-8.34
2018-11-21T00:30:00.218Z,-8.37
2018-11-21T00:32:27.744Z,-8.40
2018-11-21T00:34:55.387Z,-8.43
2018-11-21T00:37:23.234Z,-8.45
2018-11-21T00:39:51.618Z,-8.48
2018-11-21T00:42:18.808Z,-8.48
2018-11-21T00:44:46.012Z,-8.49
2018-11-21T00:47:13.428Z,-8.50
2018-11-21T00:49:40.610Z,-8.51
2018-11-21T00:52:07.866Z,-8.55
2018-11-21T00:54:35.663Z,-8.60
2018-11-21T00:57:02.862Z,-8.65
2018-11-21T00:59:30.078Z,-8.68
2018-11-21T01:01:57.308Z,-8.71
2018-11-21T01:04:24.699Z,-8.73
2018-11-21T01:06:51.965Z,-8.77
2018-11-21T01:09:19.235Z,-8.78
2018-11-21T01:11:46.392Z,-8.75
2018-11-21T01:14:13.584Z,-8.79
2018-11-21T01:16:40.754Z,-8.78
2018-11-21T01:19:07.950Z,-8.83
2018-11-21T01:21:35.135Z,-8.83
2018-11-21T01:24:02.352Z,-8.85
2018-11-21T01:26:29.535Z,-8.86
2018-11-21T01:28:56.783Z,-8.92
2018-11-21T01:31:23.962Z,-8.91
2018-11-21T01:33:53.477Z,-8.95
2018-11-21T01:36:20.646Z,-8.95
2018-11-21T01:38:47.807Z,-9.01
2018-11-21T01:41:15.023Z,-8.98
2018-11-21T01:43:42.196Z,-8.96
2018-11-21T01:46:09.358Z,-8.91
2018-11-21T01:48:36.577Z,-8.85
2018-11-21T01:51:03.906Z,-8.87
2018-11-21T01:53:31.176Z,-8.92
2018-11-21T01:55:58.383Z,-8.98
2018-11-21T01:58:25.567Z,-9.00
2018-11-21T02:00:52.824Z,-9.01
2018-11-21T02:03:19.980Z,-9.02
2018-11-21T02:05:47.174Z,-9.05
2018-11-21T02:08:14.364Z,-9.08
2018-11-21T02:10:41.608Z,-9.11
2018-11-21T02:13:08.810Z,-9.10
2018-11-21T02:15:35.989Z,-9.11
2018-11-21T02:18:03.243Z,-9.12
2018-11-21T02:20:30.441Z,-9.14
2018-11-21T02:22:57.659Z,-9.17
2018-11-21T02:25:24.845Z,-9.17
2018-11-21T02:27:52.500Z,-9.17
2018-11-21T02:30:19.703Z,-9.18
2018-11-21T02:32:46.905Z,-9.17
2018-11-21T02:35:14.086Z,-9.19
2018-11-21T02:37:41.289Z,-9.23
2018-11-21T02:40:08.691Z,-9.25
2018-11-21T02:42:36.016Z,-9.26
2018-11-21T02:45:03.199Z,-9.27
2018-11-21T02:47:30.408Z,-9.29
2018-11-21T02:49:57.597Z,-9.31
2018-11-21T02:52:24.763Z,-9.30
2018-11-21T02:54:51.961Z,-9.36
2018-11-21T02:57:21.521Z,-9.35
2018-11-21T02:59:50.379Z,-9.37
2018-11-21T03:02:17.578Z,-9.39
2018-11-21T03:04:44.773Z,-9.38
2018-11-21T03:07:11.992Z,-9.37
2018-11-21T03:09:39.193Z,-9.39
2018-11-21T03:12:07.327Z,-9.44
2018-11-21T03:14:34.561Z,-9.49
2018-11-21T03:17:01.994Z,-9.49
2018-11-21T03:19:29.207Z,-9.50
2018-11-21T03:21:56.363Z,-9.53
2018-11-21T03:24:23.560Z,-9.56
2018-11-21T03:26:51.368Z,-9.58
2018-11-21T03:29:18.618Z,-9.55
2018-11-21T03:31:45.777Z,-9.54
2018-11-21T03:34:12.966Z,-9.54
2018-11-21T03:36:46.632Z,-9.55
2018-11-21T03:39:13.860Z,-9.57
2018-11-21T03:41:41.013Z,-9.56
2018-11-21T03:44:08.176Z,-9.57
2018-11-21T03:46:35.384Z,-9.58
2018-11-21T03:49:02.538Z,-9.58
2018-11-21T03:51:29.737Z,-9.60
2018-11-21T03:53:56.906Z,-9.51
2018-11-21T03:56:24.093Z,-9.53
2018-11-21T03:58:51.259Z,-9.57
2018-11-21T04:01:18.429Z,-9.59
2018-11-21T04:03:45.646Z,-9.60
2018-11-21T04:06:12.830Z,-9.61
2018-11-21T04:08:42.624Z,-9.64
2018-11-21T04:11:07.229Z,-9.64
2018-11-21T04:13:34.392Z,-9.66
2018-11-21T04:16:01.596Z,-9.46
2018-11-21T04:18:28.767Z,-9.42
2018-11-21T04:20:55.963Z,-9.51
2018-11-21T04:23:23.179Z,-9.49
2018-11-21T04:25:50.336Z,-9.38
2018-11-21T04:28:17.538Z,-9.23
2018-11-21T04:30:44.696Z,-9.16
2018-11-21T04:33:11.916Z,-9.17
2018-11-21T04:35:39.103Z,-9.29
2018-11-21T04:38:06.290Z,-9.41
2018-11-21T04:40:33.465Z,-9.51
2018-11-21T04:43:00.659Z,-9.57
2018-11-21T04:45:27.856Z,-9.59
2018-11-21T04:47:56.049Z,-9.62
2018-11-21T04:50:23.181Z,-9.64
2018-11-21T04:52:50.362Z,-9.67
2018-11-21T04:55:17.566Z,-9.69
2018-11-21T04:57:44.733Z,-9.69
2018-11-21T05:00:11.902Z,-9.59
2018-11-21T05:02:39.176Z,-9.42
2018-11-21T05:05:07.400Z,-9.49
2018-11-21T05:07:34.560Z,-9.55
2018-11-21T05:10:01.883Z,-9.59
2018-11-21T05:12:29.038Z,-9.60
2018-11-21T05:14:56.168Z,-9.60
2018-11-21T05:17:23.346Z,-9.59
2018-11-21T05:19:50.515Z,-9.63
2018-11-21T05:22:17.652Z,-9.64
2018-11-21T05:24:44.853Z,-9.65
2018-11-21T05:27:12.010Z,-9.66
2018-11-21T05:29:39.201Z,-9.67
2018-11-21T05:32:06.378Z,-9.62
2018-11-21T05:34:33.546Z,-9.56
2018-11-21T05:37:00.729Z,-9.55
2018-11-21T05:39:27.892Z,-9.54
2018-11-21T05:41:55.323Z,-9.50
2018-11-21T05:44:22.621Z,-9.55
2018-11-21T05:46:53.562Z,-9.62
2018-11-21T05:49:17.228Z,-9.71
2018-11-21T05:51:44.527Z,-9.59
2018-11-21T05:54:11.835Z,-9.61
2018-11-21T05:56:39.118Z,-9.71
2018-11-21T05:59:06.396Z,-9.75
2018-11-21T06:01:33.667Z,-9.67
2018-11-21T06:04:00.917Z,-9.55
2018-11-21T06:06:28.228Z,-9.56
2018-11-21T06:08:55.490Z,-9.58
2018-11-21T06:11:22.789Z,-9.52
2018-11-21T06:13:50.081Z,-9.54
2018-11-21T06:16:17.359Z,-9.57
2018-11-21T06:18:44.660Z,-9.63
2018-11-21T06:21:11.943Z,-9.76
2018-11-21T06:23:39.219Z,-9.86
2018-11-21T06:26:06.503Z,-9.89
2018-11-21T06:28:33.772Z,-9.94
2018-11-21T06:31:01.055Z,-9.91
2018-11-21T06:33:28.342Z,-9.87
2018-11-21T06:35:55.755Z,-9.86
2018-11-21T06:38:23.021Z,-9.90
2018-11-21T06:40:50.284Z,-9.97
2018-11-21T06:43:17.585Z,-10.00
2018-11-21T06:45:44.874Z,-10.03
2018-11-21T06:48:12.183Z,-10.05
2018-11-21T06:50:39.441Z,-10.10
2018-11-21T06:53:06.884Z,-10.13
2018-11-21T06:55:34.174Z,-10.12
2018-11-21T06:58:01.460Z,-10.15
2018-11-21T07:00:28.718Z,-10.17
2018-11-21T07:02:56.016Z,-10.14
2018-11-21T07:05:23.403Z,-10.14
2018-11-21T07:07:50.680Z,-10.18
2018-11-21T07:10:18.141Z,-10.20
2018-11-21T07:12:45.828Z,-10.20
2018-11-21T07:15:13.111Z,-10.20
2018-11-21T07:17:40.381Z,-10.10
2018-11-21T07:20:27.092Z,-10.09
2018-11-21T07:22:54.270Z,-10.14
2018-11-21T07:25:22.409Z,-10.18
2018-11-21T07:27:49.589Z,-10.20
2018-11-21T07:30:17.364Z,-10.21
2018-11-21T07:32:44.510Z,-10.24
2018-11-21T07:35:17.554Z,-10.24
2018-11-21T07:37:39.949Z,-10.26
2018-11-21T07:40:08.645Z,-10.25
2018-11-21T07:42:35.777Z,-10.23
2018-11-21T07:45:02.987Z,-10.23
2018-11-21T07:47:30.145Z,-10.20
2018-11-21T07:49:57.313Z,-10.21
2018-11-21T07:52:24.484Z,-10.26
2018-11-21T07:54:51.686Z,-10.26
2018-11-21T07:57:39.701Z,-10.22
2018-11-21T08:01:05.430Z,-10.19
2018-11-21T08:03:43.829Z,-10.17
2018-11-21T08:06:30.479Z,-10.15
2018-11-21T08:09:17.112Z,-10.14
2018-11-21T08:12:03.767Z,-10.10
2018-11-21T08:14:50.411Z,-10.07
2018-11-21T08:17:37.046Z,-10.06
2018-11-21T08:20:24.754Z,-10.07
2018-11-21T08:23:11.405Z,-10.08
2018-11-21T08:25:58.026Z,-10.04
2018-11-21T08:28:28.652Z,-9.96
2018-11-21T08:30:55.832Z,-9.92
2018-11-21T09:53:40.676Z,-6.84
2018-11-21T09:56:07.869Z,-6.70
2018-11-21T09:58:35.126Z,-6.65
2018-11-21T10:01:41.225Z,-6.54
2018-11-21T10:04:08.393Z,-6.43
2018-11-21T10:06:37.605Z,-6.27
2018-11-21T10:09:26.492Z,-6.16
2018-11-21T10:11:53.623Z,-6.02
2018-11-21T10:14:20.789Z,-5.93
2018-11-21T10:16:47.983Z,-5.86
2018-11-21T10:19:15.156Z,-5.89
2018-11-21T10:21:42.314Z,-5.89
2018-11-21T10:24:09.793Z,-5.89
2018-11-21T10:26:36.962Z,-5.86
2018-11-21T10:29:04.770Z,-5.85
2018-11-21T10:31:31.913Z,-5.84
2018-11-21T10:33:59.089Z,-5.79
2018-11-21T10:36:26.252Z,-5.75
2018-11-21T10:41:26.862Z,-5.61
2018-11-21T10:43:54.033Z,-5.50
2018-11-21T10:46:21.205Z,-5.42
2018-11-21T10:48:48.378Z,-5.34
2018-11-21T10:51:15.557Z,-5.30
2018-11-21T10:53:42.712Z,-5.25
2018-11-21T10:56:09.875Z,-5.20
2018-11-21T10:58:37.049Z,-5.18
2018-11-21T11:01:23.910Z,-5.09
2018-11-21T11:04:10.568Z,-5.01
2018-11-21T11:06:57.279Z,-4.94
2018-11-21T11:09:43.915Z,-4.88
2018-11-21T11:15:10.137Z,-4.52
2018-11-21T11:17:59.439Z,-4.39
2018-11-21T11:20:43.469Z,-4.28
2018-11-21T11:23:30.126Z,-4.20
2018-11-21T11:26:16.767Z,-4.10
2018-11-21T11:29:03.425Z,-4.05
2018-11-21T11:31:50.149Z,-3.98
2018-11-21T11:34:36.847Z,-4.00
2018-11-21T11:37:23.508Z,-4.02
2018-11-21T11:40:10.212Z,-4.01
2018-11-21T11:42:56.881Z,-4.01
2018-11-21T11:45:43.547Z,-4.02
2018-11-21T11:48:30.247Z,-4.01
2018-11-21T11:51:16.909Z,-3.98
2018-11-21T11:54:03.558Z,-3.94
2018-11-21T11:56:50.223Z,-3.92
2018-11-21T11:59:36.884Z,-3.96
2018-11-21T12:05:12.697Z,-3.53
2018-11-21T12:07:59.346Z,-3.37
2018-11-21T12:10:45.990Z,-3.46
2018-11-21T12:13:32.619Z,-3.60
2018-11-21T12:16:19.261Z,-3.56
2018-11-21T12:19:05.897Z,-3.66
2018-11-21T12:21:52.566Z,-3.73
2018-11-21T12:24:39.220Z,-3.74
2018-11-21T12:27:25.898Z,-3.78
2018-11-21T12:30:12.561Z,-3.76
2018-11-21T12:32:59.223Z,-3.69
2018-11-21T12:35:45.857Z,-3.71
2018-11-21T12:38:32.514Z,-3.72
2018-11-21T12:41:19.153Z,-3.70
2018-11-21T12:44:05.859Z,-3.77
2018-11-21T12:46:52.557Z,-3.77
2018-11-21T12:49:39.211Z,-3.75
2018-11-21T12:52:45.320Z,-3.82
2018-11-21T12:55:32.006Z,-3.80
2018-11-21T12:58:18.645Z,-3.75
2018-11-21T13:01:05.288Z,-3.81
2018-11-21T13:03:51.931Z,-3.86
2018-11-21T13:06:38.597Z,-3.84
2018-11-21T13:09:27.851Z,-3.80
2018-11-21T13:12:15.522Z,-3.87
2018-11-21T13:15:01.148Z,-3.83
2018-11-21T13:17:47.789Z,-3.81
2018-11-21T13:20:34.426Z,-3.76
2018-11-21T13:23:21.072Z,-3.79
2018-11-21T13:26:07.726Z,-3.82
2018-11-21T13:28:54.362Z,-3.87
2018-11-21T13:31:41.047Z,-3.98
2018-11-21T13:34:27.707Z,-3.99
2018-11-21T13:37:14.364Z,-3.91
2018-11-21T13:40:01.035Z,-3.84
2018-11-21T13:42:47.761Z,-3.91
2018-11-21T13:45:34.460Z,-4.01
2018-11-21T13:48:21.168Z,-4.01
2018-11-21T13:51:07.803Z,-4.09
2018-11-21T13:53:54.469Z,-4.15
2018-11-21T13:56:21.649Z,-4.25
2018-11-21T13:58:48.837Z,-4.34
2018-11-21T14:01:15.994Z,-4.36
2018-11-21T14:03:43.218Z,-4.41
2018-11-21T14:06:10.432Z,-4.48
2018-11-21T14:08:37.587Z,-4.53
2018-11-21T14:11:05.154Z,-4.58
2018-11-21T14:13:32.455Z,-4.66
2018-11-21T14:15:59.645Z,-4.73
2018-11-21T14:18:26.827Z,-4.79
2018-11-21T14:20:54.444Z,-4.85
2018-11-21T14:23:21.597Z,-4.92
2018-11-21T14:25:48.788Z,-4.97
2018-11-21T14:28:15.999Z,-5.02
2018-11-21T14:30:43.206Z,-5.06
2018-11-21T14:33:10.405Z,-5.09
2018-11-21T14:35:37.580Z,-5.14
2018-11-21T14:38:05.119Z,-5.17
2018-11-21T14:40:32.291Z,-5.14
2018-11-21T14:42:59.442Z,-5.11
2018-11-21T14:45:26.617Z,-5.10
2018-11-21T14:47:53.850Z,-5.10
2018-11-21T14:50:41.621Z,-4.97
2018-11-21T14:53:08.775Z,-5.01
2018-11-21T14:55:35.974Z,-5.09
2018-11-21T14:58:03.276Z,-5.11
2018-11-21T15:00:30.463Z,-5.19
2018-11-21T15:02:57.650Z,-5.26
2018-11-21T15:05:24.826Z,-5.31
2018-11-21T15:07:52.036Z,-5.35
2018-11-21T15:10:19.203Z,-5.40
2018-11-21T15:12:46.433Z,-5.44
2018-11-21T15:15:15.356Z,-5.49
2018-11-21T15:17:42.574Z,-5.52
2018-11-21T15:20:13.519Z,-5.51
2018-11-21T15:22:40.655Z,-5.51
2018-11-21T15:25:10.351Z,-5.55
2018-11-21T15:27:37.499Z,-5.58
2018-11-21T15:30:27.887Z,-5.64
2018-11-21T15:32:55.042Z,-5.65
2018-11-21T15:35:22.159Z,-5.68
2018-11-21T15:37:49.290Z,-5.69
2018-11-21T15:40:18.019Z,-5.68
2018-11-21T15:42:45.189Z,-5.66
2018-11-21T15:45:14.198Z,-5.64
2018-11-21T15:47:41.449Z,-5.59
2018-11-21T15:50:10.646Z,-5.55
2018-11-21T15:52:38.111Z,-5.58
2018-11-21T15:55:06.343Z,-5.65
2018-11-21T15:57:33.478Z,-5.72
2018-11-21T16:00:00.584Z,-5.77
2018-11-21T16:02:27.683Z,-5.82
2018-11-21T16:04:54.814Z,-5.87
2018-11-21T16:07:21.902Z,-5.93
2018-11-21T16:09:49.039Z,-5.97
2018-11-21T16:12:16.133Z,-6.01
2018-11-21T16:14:43.308Z,-6.04
2018-11-21T16:17:10.473Z,-6.07
2018-11-21T16:19:37.611Z,-6.12
2018-11-21T16:22:05.048Z,-6.17
2018-11-21T16:24:32.141Z,-6.22
2018-11-21T16:26:59.281Z,-6.27
2018-11-21T16:29:26.375Z,-6.34
2018-11-21T16:31:53.609Z,-6.38
2018-11-21T16:34:20.722Z,-6.45
2018-11-21T16:36:47.834Z,-6.51
2018-11-21T16:39:14.954Z,-6.59
2018-11-21T16:41:42.133Z,-6.69
2018-11-21T16:44:09.375Z,-6.76
2018-11-21T16:46:36.502Z,-6.85
2018-11-21T16:49:03.923Z,-6.91
2018-11-21T16:51:31.044Z,-6.95
2018-11-21T16:53:58.250Z,-7.05
2018-11-21T16:56:25.348Z,-7.08
2018-11-21T16:58:52.450Z,-7.19
2018-11-21T17:01:19.577Z,-7.36
2018-11-21T17:03:46.684Z,-7.36
2018-11-21T17:06:13.778Z,-7.34
2018-11-21T17:08:40.927Z,-7.41
2018-11-21T17:11:08.069Z,-7.44
2018-11-21T17:13:35.158Z,-7.49
2018-11-21T17:16:02.561Z,-7.54
2018-11-21T17:18:29.694Z,-7.58
2018-11-21T17:20:56.841Z,-7.62
2018-11-21T17:23:23.952Z,-7.65
2018-11-21T17:25:51.036Z,-7.68
2018-11-21T17:28:18.154Z,-7.69
2018-11-21T17:30:45.259Z,-7.71
2018-11-21T17:33:12.383Z,-7.77
2018-11-21T17:35:39.528Z,-7.86
2018-11-21T17:38:06.625Z,-7.88
2018-11-21T17:40:53.216Z,-7.87
2018-11-21T17:43:20.340Z,-7.90
2018-11-21T17:45:47.424Z,-7.92
2018-11-21T17:48:14.525Z,-7.96
2018-11-21T17:50:41.638Z,-7.97
2018-11-21T17:53:28.213Z,-7.97
2018-11-21T17:55:55.300Z,-7.96
2018-11-21T17:58:22.399Z,-8.01
2018-11-21T18:00:49.519Z,-8.07
2018-11-21T18:03:16.634Z,-8.16
2018-11-21T18:05:43.765Z,-8.20
2018-11-21T18:08:10.870Z,-8.19
2018-11-21T18:10:39.425Z,-8.21
2018-11-21T18:13:06.713Z,-8.20
2018-11-21T18:15:33.806Z,-8.21
2018-11-21T18:18:00.915Z,-8.21
2018-11-21T18:20:28.018Z,-8.20
2018-11-21T18:22:55.119Z,-8.18
2018-11-21T18:25:24.174Z,-8.21
2018-11-21T18:27:51.266Z,-8.25
2018-11-21T18:30:19.924Z,-8.30
2018-11-21T18:32:47.107Z,-8.35
2018-11-21T18:35:15.569Z,-8.43
2018-11-21T18:37:43.419Z,-8.51
2018-11-21T18:40:13.133Z,-8.56
2018-11-21T18:42:40.370Z,-8.59
2018-11-21T18:45:10.221Z,-8.66
2018-11-21T18:47:37.477Z,-8.67
2018-11-21T18:50:11.045Z,-8.67
2018-11-21T18:52:33.874Z,-8.68
2018-11-21T18:55:00.995Z,-8.65
2018-11-21T18:58:07.042Z,-8.69
2018-11-21T19:00:35.257Z,-8.67
2018-11-21T19:03:02.467Z,-8.73
2018-11-21T19:05:29.577Z,-8.77
2018-11-21T19:07:56.706Z,-8.85
2018-11-21T19:10:23.806Z,-8.90
2018-11-21T19:12:50.978Z,-8.92
2018-11-21T19:15:18.208Z,-8.98
2018-11-21T19:17:45.330Z,-8.97
2018-11-21T19:20:17.868Z,-8.99
2018-11-21T19:22:44.952Z,-9.00
2018-11-21T19:25:12.226Z,-9.01
2018-11-21T19:27:39.937Z,-9.03
2018-11-21T19:30:26.534Z,-9.04
2018-11-21T19:32:53.691Z,-9.03
2018-11-21T19:35:20.803Z,-9.02
2018-11-21T19:37:47.896Z,-9.04
2018-11-21T19:40:15.664Z,-9.08
2018-11-21T19:42:42.753Z,-9.12
2018-11-21T19:45:11.755Z,-9.16
2018-11-21T19:47:41.315Z,-9.15
2018-11-21T19:50:10.440Z,-9.16
2018-11-21T19:52:38.097Z,-9.15
2018-11-21T19:55:07.400Z,-9.15
2018-11-21T19:57:34.491Z,-9.16
2018-11-21T20:00:01.607Z,-9.19
2018-11-21T20:02:28.724Z,-9.17
2018-11-21T20:04:55.826Z,-9.19
2018-11-21T20:07:22.933Z,-9.20
2018-11-21T20:09:50.033Z,-9.19
2018-11-21T20:12:17.163Z,-9.20
2018-11-21T20:14:44.269Z,-9.15
2018-11-21T20:17:11.397Z,-9.21
2018-11-21T20:19:38.530Z,-9.13
2018-11-21T20:22:05.663Z,-9.13
2018-11-21T20:24:32.801Z,-9.16
2018-11-21T20:26:59.920Z,-9.14
2018-11-21T20:29:27.013Z,-9.16
2018-11-21T20:31:54.157Z,-9.16
2018-11-21T20:34:21.246Z,-9.18
2018-11-21T20:36:48.391Z,-9.18
2018-11-21T20:39:15.508Z,-9.19
2018-11-21T20:41:42.697Z,-9.21
2018-11-21T20:44:09.935Z,-9.20
2018-11-21T20:46:37.033Z,-9.19
2018-11-21T20:49:07.832Z,-9.17
2018-11-21T20:51:31.752Z,-9.14
2018-11-21T20:53:58.869Z,-9.16
2018-11-21T20:56:25.983Z,-9.15
2018-11-21T20:58:53.093Z,-9.17
2018-11-21T21:01:20.210Z,-9.21
2018-11-21T21:03:47.288Z,-9.23
2018-11-21T21:06:14.418Z,-9.22
2018-11-21T21:08:41.552Z,-9.21
2018-11-21T21:11:08.727Z,-9.17
2018-11-21T21:13:38.202Z,-9.11
2018-11-21T21:16:05.289Z,-9.02
2018-11-21T21:18:32.384Z,-8.89
2018-11-21T21:20:59.480Z,-8.79
2018-11-21T21:23:26.583Z,-8.72
2018-11-21T21:25:56.105Z,-8.62
2018-11-21T21:28:23.211Z,-8.46
2018-11-21T21:30:50.351Z,-8.37
2018-11-21T21:33:17.507Z,-8.35
2018-11-21T21:35:44.635Z,-8.37
2018-11-21T21:38:11.742Z,-8.37
2018-11-21T21:40:38.878Z,-8.35
2018-11-21T21:43:08.715Z,-8.41
2018-11-21T21:45:35.857Z,-8.41
2018-11-21T21:48:02.968Z,-8.43
2018-11-21T21:50:31.640Z,-8.43
2018-11-21T21:52:58.853Z,-8.43
2018-11-21T21:55:27.026Z,-8.43
2018-11-21T21:57:54.142Z,-8.44
2018-11-21T22:00:22.639Z,-8.38
2018-11-21T22:02:50.331Z,-8.38
2018-11-21T22:05:17.441Z,-8.34
2018-11-21T22:07:44.634Z,-8.30
2018-11-21T22:10:13.055Z,-8.25
2018-11-21T22:12:40.190Z,-8.20
2018-11-21T22:15:28.376Z,-8.13
2018-11-21T22:17:57.169Z,-8.12
2018-11-21T22:20:24.311Z,-8.08
2018-11-21T22:22:52.250Z,-8.08
2018-11-21T22:25:19.876Z,-8.05
2018-11-21T22:27:47.473Z,-8.00
2018-11-21T22:30:15.011Z,-8.01
2018-11-21T22:32:43.196Z,-8.00
2018-11-21T22:35:11.354Z,-8.00
2018-11-21T22:37:38.488Z,-7.99
2018-11-21T22:40:07.960Z,-8.03
2018-11-21T22:42:35.085Z,-8.06
2018-11-21T22:45:02.188Z,-8.09
2018-11-21T22:47:29.366Z,-8.14
2018-11-21T22:49:56.470Z,-8.15
2018-11-21T22:52:23.615Z,-8.21
2018-11-21T22:54:50.744Z,-8.26
2018-11-21T22:57:17.853Z,-8.28
2018-11-21T22:59:44.990Z,-8.32
2018-11-21T23:02:12.136Z,-8.33
2018-11-21T23:04:39.257Z,-8.40
2018-11-21T23:07:06.378Z,-8.41
2018-11-21T23:09:33.503Z,-8.51
2018-11-21T23:12:01.558Z,-8.52
2018-11-21T23:14:28.660Z,-8.51
2018-11-21T23:16:55.770Z,-8.51
2018-11-21T23:19:22.933Z,-8.48
2018-11-21T23:21:50.024Z,-8.41
2018-11-21T23:24:17.119Z,-8.40
2018-11-21T23:26:44.258Z,-8.41
2018-11-21T23:29:11.360Z,-8.45
2018-11-21T23:31:38.459Z,-8.42
2018-11-21T23:34:05.664Z,-8.43
2018-11-21T23:36:32.766Z,-8.44
2018-11-21T23:38:59.842Z,-8.43
2018-11-21T23:41:26.994Z,-8.44
2018-11-21T23:43:54.107Z,-8.28
2018-11-21T23:46:21.266Z,-8.15
2018-11-21T23:48:48.352Z,-8.16
2018-11-21T23:51:15.458Z,-8.12
2018-11-21T23:53:42.572Z,-8.07
2018-11-21T23:56:09.677Z,-8.06
2018-11-21T23:58:36.770Z,-8.05
